Time,TemperatureF,DewpointF,PressureIn,WindDirection,WindDirectionDegrees,WindSpeedMPH,WindSpeedGustMPH,Humidity,HourlyPrecipIn,Conditions,Clouds,dailyrainin,SoftwareType,DateUTC
2013-04-19 00:01:00,60.8,60.8,29.65,South,180,3.4,4.8,100,0.04,,-RA,0.00,VWS V14.01,2013-04-19 04:01:00,
2013-04-19 00:06:00,60.6,60.6,29.65,South,180,0.0,0.0,100,0.04,,-RA,0.00,VWS V14.01,2013-04-19 04:06:00,
2013-04-19 00:11:00,60.6,60.6,29.65,South,180,0.0,2.4,100,0.04,,-RA,0.00,VWS V14.01,2013-04-19 04:11:00,
2013-04-19 00:16:00,60.4,60.4,29.65,South,180,0.0,0.0,100,0.04,,-RA,0.00,VWS V14.01,2013-04-19 04:16:00,
2013-04-19 00:21:00,60.4,60.4,29.65,South,180,0.0,0.0,100,0.04,,-RA,0.00,VWS V14.01,2013-04-19 04:21:00,
2013-04-19 00:26:00,60.3,60.3,29.62,South,180,0.0,0.0,100,0.04,,-RA,0.00,VWS V14.01,2013-04-19 04:26:00,
2013-04-19 00:31:00,60.3,60.3,29.62,South,180,0.0,0.0,100,0.04,,-RA,0.00,VWS V14.01,2013-04-19 04:31:00,
2013-04-19 00:36:00,60.1,60.1,29.62,South,180,0.0,0.0,100,0.04,,-RA,0.00,VWS V14.01,2013-04-19 04:36:00,
2013-04-19 00:41:00,60.1,60.1,29.59,South,180,0.0,0.0,100,0.04,,-RA,0.00,VWS V14.01,2013-04-19 04:41:00,
2013-04-19 00:46:00,60.1,60.1,29.59,South,180,2.8,2.8,100,0.04,,-RA,0.00,VWS V14.01,2013-04-19 04:46:00,
2013-04-19 00:51:00,60.1,60.1,29.59,South,180,0.0,0.0,100,0.04,,-RA,0.00,VWS V14.01,2013-04-19 04:51:00,
2013-04-19 00:56:00,60.1,60.1,29.59,South,180,2.8,2.8,100,0.00,,-RA,0.00,VWS V14.01,2013-04-19 04:56:00,
2013-04-19 01:01:00,60.1,60.1,29.59,South,180,0.0,0.0,100,0.00,,OVC070,0.00,VWS V14.01,2013-04-19 05:01:00,
2013-04-19 01:06:00,60.1,60.1,29.59,South,180,0.0,0.0,100,0.00,,OVC070,0.00,VWS V14.01,2013-04-19 05:06:00,
2013-04-19 01:11:00,60.1,60.1,29.59,SSE,158,3.4,3.4,100,0.00,,OVC070,0.00,VWS V14.01,2013-04-19 05:11:00,
2013-04-19 01:16:00,60.1,60.1,29.59,South,180,7.8,7.8,100,0.00,,OVC070,0.00,VWS V14.01,2013-04-19 05:16:00,
2013-04-19 01:21:00,60.3,60.3,29.59,SSE,158,2.8,4.8,100,0.00,,OVC070,0.00,VWS V14.01,2013-04-19 05:21:00,
2013-04-19 01:26:00,60.1,60.1,29.56,NW,315,7.8,7.8,100,0.00,,OVC070,0.00,VWS V14.01,2013-04-19 05:26:00,
2013-04-19 01:31:00,60.1,60.1,29.56,West,270,3.9,3.9,100,0.04,,-RA,0.04,VWS V14.01,2013-04-19 05:31:00,
2013-04-19 01:36:00,60.1,60.1,29.56,West,270,0.0,0.0,100,0.04,,-RA,0.04,VWS V14.01,2013-04-19 05:36:00,
2013-04-19 01:41:00,60.3,60.3,29.59,South,180,5.0,9.1,100,0.04,,-RA,0.04,VWS V14.01,2013-04-19 05:41:00,
2013-04-19 01:46:00,60.1,60.1,29.59,South,180,3.9,4.8,100,0.04,,-RA,0.00,VWS V14.01,2013-04-19 05:46:00,
2013-04-19 01:51:00,60.1,60.1,29.59,South,180,2.8,4.3,100,0.04,,-RA,0.04,VWS V14.01,2013-04-19 05:51:00,
2013-04-19 01:56:00,60.1,60.1,29.59,South,180,2.2,2.9,100,0.04,,-RA,0.04,VWS V14.01,2013-04-19 05:56:00,
2013-04-19 02:01:00,60.1,60.1,29.59,South,180,0.0,0.0,100,0.04,,-RA,0.04,VWS V14.01,2013-04-19 06:01:00,
2013-04-19 02:06:00,60.1,60.1,29.59,South,180,0.0,1.9,100,0.04,,-RA,0.00,VWS V14.01,2013-04-19 06:06:00,
2013-04-19 02:11:00,59.9,59.9,29.53,South,180,0.0,0.0,100,0.04,,-RA,0.04,VWS V14.01,2013-04-19 06:11:00,
2013-04-19 02:16:00,59.9,59.9,29.53,South,180,0.0,0.0,100,0.04,,-RA,0.04,VWS V14.01,2013-04-19 06:16:00,
2013-04-19 02:22:00,59.9,59.9,29.53,South,180,0.0,0.0,100,0.04,,-RA,0.04,VWS V14.01,2013-04-19 06:22:00,
2013-04-19 02:26:00,59.7,59.7,29.56,South,180,0.0,0.0,100,0.04,,-RA,0.04,VWS V14.01,2013-04-19 06:26:00,
2013-04-19 02:32:00,59.7,59.7,29.56,South,180,0.0,0.0,100,0.00,,-RA,0.04,VWS V14.01,2013-04-19 06:32:00,
2013-04-19 02:37:00,59.5,59.5,29.56,South,180,0.0,0.0,100,0.00,,-RA,0.04,VWS V14.01,2013-04-19 06:37:00,
2013-04-19 02:42:00,59.5,59.5,29.53,South,180,0.0,0.0,100,0.00,,-RA,0.04,VWS V14.01,2013-04-19 06:42:00,
2013-04-19 02:47:00,59.5,59.5,29.53,South,180,0.0,2.4,100,0.00,,-RA,0.04,VWS V14.01,2013-04-19 06:47:00,
2013-04-19 02:52:00,59.7,59.7,29.53,South,180,0.0,0.0,100,0.00,,-RA,0.04,VWS V14.01,2013-04-19 06:52:00,
2013-04-19 02:57:00,59.7,59.7,29.53,South,180,0.0,1.9,100,0.00,,-RA,0.04,VWS V14.01,2013-04-19 06:57:00,
2013-04-19 03:02:00,59.7,59.7,29.53,South,180,3.4,4.8,100,0.00,,-RA,0.04,VWS V14.01,2013-04-19 07:02:00,
2013-04-19 03:07:00,59.5,59.5,29.53,South,180,3.9,4.3,100,0.00,,-RA,0.04,VWS V14.01,2013-04-19 07:07:00,
2013-04-19 03:12:00,59.7,59.7,29.53,South,180,0.0,1.9,100,0.00,,-RA,0.04,VWS V14.01,2013-04-19 07:12:00,
2013-04-19 03:17:00,59.7,59.7,29.53,South,180,2.2,6.3,100,0.04,,-RA,0.08,VWS V14.01,2013-04-19 07:17:00,
2013-04-19 03:22:00,59.7,59.7,29.53,SSE,158,0.0,2.4,100,0.04,,-RA,0.08,VWS V14.01,2013-04-19 07:22:00,
2013-04-19 03:27:00,59.9,59.9,29.47,SE,135,3.9,5.3,100,0.04,,-RA,0.08,VWS V14.01,2013-04-19 07:27:00,
2013-04-19 03:32:00,59.9,59.9,29.47,SSE,158,2.2,3.4,100,0.04,,-RA,0.08,VWS V14.01,2013-04-19 07:32:00,
2013-04-19 03:37:00,59.9,59.9,29.47,SSE,158,8.4,8.4,100,0.04,,-RA,0.08,VWS V14.01,2013-04-19 07:37:00,
2013-04-19 03:42:00,59.9,59.9,29.50,South,180,2.8,5.3,100,0.04,,-RA,0.08,VWS V14.01,2013-04-19 07:42:00,
2013-04-19 03:47:00,59.9,59.9,29.50,SSE,158,6.2,6.2,100,0.04,,-RA,0.08,VWS V14.01,2013-04-19 07:47:00,
2013-04-19 03:52:00,59.9,59.9,29.50,SE,135,3.9,7.7,100,0.08,,-RA,0.12,VWS V14.01,2013-04-19 07:52:00,
2013-04-19 03:57:00,59.9,59.9,29.50,SSE,158,3.9,9.1,100,0.08,,-RA,0.12,VWS V14.01,2013-04-19 07:57:00,
2013-04-19 04:02:00,59.9,59.9,29.50,South,180,6.7,9.1,100,0.08,,-RA,0.12,VWS V14.01,2013-04-19 08:02:00,
2013-04-19 04:07:00,59.9,59.9,29.50,South,180,5.0,5.3,100,0.08,,-RA,0.12,VWS V14.01,2013-04-19 08:07:00,
2013-04-19 04:12:00,59.9,59.9,29.47,SSE,158,7.8,7.8,100,0.08,,-RA,0.12,VWS V14.01,2013-04-19 08:12:00,
2013-04-19 04:17:00,59.9,59.9,29.47,SSE,158,2.8,4.8,100,0.04,,-RA,0.12,VWS V14.01,2013-04-19 08:17:00,
2013-04-19 04:22:00,59.9,59.9,29.47,SSE,158,6.7,13.5,100,0.04,,-RA,0.12,VWS V14.01,2013-04-19 08:22:00,
2013-04-19 04:27:00,59.9,59.9,29.44,South,180,8.4,8.4,100,0.04,,-RA,0.12,VWS V14.01,2013-04-19 08:27:00,
2013-04-19 04:32:00,59.9,59.9,29.44,SE,135,0.0,0.0,100,0.04,,-RA,0.12,VWS V14.01,2013-04-19 08:32:00,
2013-04-19 04:37:00,59.9,59.9,29.44,South,180,5.6,5.6,100,0.09,,-RA,0.17,VWS V14.01,2013-04-19 08:37:00,
2013-04-19 04:42:00,59.9,59.9,29.44,South,180,10.6,10.6,100,0.09,,-RA,0.17,VWS V14.01,2013-04-19 08:42:00,
2013-04-19 04:47:00,59.9,59.9,29.44,SSE,158,5.6,5.6,100,0.09,,-RA,0.17,VWS V14.01,2013-04-19 08:47:00,
2013-04-19 04:52:00,59.9,59.9,29.44,South,180,6.2,6.2,100,0.05,,-RA,0.17,VWS V14.01,2013-04-19 08:52:00,
2013-04-19 04:57:00,59.9,59.9,29.44,South,180,7.8,7.8,100,0.05,,-RA,0.17,VWS V14.01,2013-04-19 08:57:00,
2013-04-19 05:02:00,59.9,59.9,29.44,SE,135,6.2,6.2,100,0.05,,-RA,0.17,VWS V14.01,2013-04-19 09:02:00,
2013-04-19 05:07:00,59.9,59.9,29.44,SSE,158,2.8,2.8,100,0.05,,-RA,0.17,VWS V14.01,2013-04-19 09:07:00,
2013-04-19 05:12:00,59.9,59.9,29.44,South,180,3.9,3.9,100,0.05,,-RA,0.17,VWS V14.01,2013-04-19 09:12:00,
2013-04-19 05:17:00,59.9,59.9,29.44,SSE,158,9.5,9.5,100,0.05,,-RA,0.17,VWS V14.01,2013-04-19 09:17:00,
2013-04-19 05:22:00,59.9,59.9,29.44,SSE,158,7.3,7.3,100,0.08,,-RA,0.20,VWS V14.01,2013-04-19 09:22:00,
2013-04-19 05:27:00,59.9,59.9,29.41,South,180,3.4,3.4,100,0.08,,-RA,0.20,VWS V14.01,2013-04-19 09:27:00,
2013-04-19 05:32:00,59.9,59.9,29.41,South,180,15.1,15.1,100,0.08,,-RA,0.20,VWS V14.01,2013-04-19 09:32:00,
2013-04-19 05:37:00,59.9,59.9,29.41,South,180,8.4,8.4,100,0.03,,-RA,0.20,VWS V14.01,2013-04-19 09:37:00,
2013-04-19 05:42:00,59.9,59.9,29.35,South,180,6.7,8.7,100,0.03,,-RA,0.20,VWS V14.01,2013-04-19 09:42:00,
2013-04-19 05:47:00,59.9,59.9,29.35,South,180,7.8,7.8,100,0.03,,-RA,0.20,VWS V14.01,2013-04-19 09:47:00,
2013-04-19 05:52:00,59.9,59.9,29.35,South,180,5.6,6.3,100,0.03,,-RA,0.20,VWS V14.01,2013-04-19 09:52:00,
2013-04-19 05:57:00,59.9,59.9,29.35,South,180,10.6,10.6,100,0.03,,-RA,0.20,VWS V14.01,2013-04-19 09:57:00,
2013-04-19 06:02:00,59.9,59.9,29.35,South,180,10.6,10.6,100,0.03,,-RA,0.20,VWS V14.01,2013-04-19 10:02:00,
2013-04-19 06:07:00,59.9,59.9,29.35,South,180,8.4,8.4,100,0.08,,-RA,0.25,VWS V14.01,2013-04-19 10:07:00,
2013-04-19 06:12:00,59.9,59.9,29.38,SE,135,6.7,6.7,100,0.08,,RA,0.25,VWS V14.01,2013-04-19 10:12:00,
2013-04-19 06:17:00,59.9,59.9,29.38,South,180,5.6,5.8,100,0.08,,RA,0.25,VWS V14.01,2013-04-19 10:17:00,
2013-04-19 06:22:00,59.9,59.9,29.38,South,180,12.3,14.0,100,0.09,,RA,0.29,VWS V14.01,2013-04-19 10:22:00,
2013-04-19 06:27:00,59.9,59.9,29.38,West,270,5.6,5.8,100,0.09,,RA,0.29,VWS V14.01,2013-04-19 10:27:00,
2013-04-19 06:32:00,59.9,59.9,29.38,South,180,6.2,6.2,100,0.09,,RA,0.29,VWS V14.01,2013-04-19 10:32:00,
2013-04-19 06:37:00,59.9,59.9,29.38,South,180,5.0,5.0,100,0.13,,RA,0.33,VWS V14.01,2013-04-19 10:37:00,
2013-04-19 06:42:00,59.9,59.9,29.38,South,180,5.0,6.3,100,0.13,,RA,0.33,VWS V14.01,2013-04-19 10:42:00,
2013-04-19 06:47:00,61.0,61.0,29.38,West,270,5.6,5.6,100,0.17,,RA,0.37,VWS V14.01,2013-04-19 10:47:00,
2013-04-19 06:52:00,59.4,59.4,29.38,NW,315,13.4,13.4,100,0.17,,RA,0.37,VWS V14.01,2013-04-19 10:52:00,
2013-04-19 06:57:00,52.7,51.3,29.38,NW,315,9.0,13.0,95,0.17,,RA,0.37,VWS V14.01,2013-04-19 10:57:00,
2013-04-19 07:02:00,51.3,49.9,29.38,NE,45,6.2,6.7,95,0.17,,-RA,0.37,VWS V14.01,2013-04-19 11:02:00,
2013-04-19 07:07:00,50.4,49.3,29.38,WNW,292,8.4,8.4,96,0.12,,-RA,0.37,VWS V14.01,2013-04-19 11:07:00,
2013-04-19 07:12:00,49.8,49.1,29.38,WNW,292,5.6,5.6,98,0.12,,-RA,0.37,VWS V14.01,2013-04-19 11:12:00,
2013-04-19 07:17:00,49.3,48.7,29.38,NW,315,15.1,15.1,98,0.12,,-RA,0.37,VWS V14.01,2013-04-19 11:17:00,
2013-04-19 07:22:00,48.7,48.3,29.44,WNW,292,6.7,6.7,98,0.08,,-RA,0.37,VWS V14.01,2013-04-19 11:22:00,
2013-04-19 07:27:00,48.2,47.9,29.44,NW,315,2.8,9.1,99,0.08,,-RA,0.37,VWS V14.01,2013-04-19 11:27:00,
2013-04-19 07:32:00,48.0,47.9,29.44,South,180,3.4,3.4,100,0.08,,-RA,0.37,VWS V14.01,2013-04-19 11:32:00,
2013-04-19 07:37:00,47.8,47.8,29.44,South,180,2.2,2.2,100,0.04,,-RA,0.37,VWS V14.01,2013-04-19 11:37:00,
2013-04-19 07:42:00,47.7,47.7,29.44,West,270,3.4,5.3,100,0.08,,-RA,0.41,VWS V14.01,2013-04-19 11:42:00,
2013-04-19 07:47:00,47.7,47.7,29.44,West,270,0.0,3.4,100,0.04,,-RA,0.41,VWS V14.01,2013-04-19 11:47:00,
2013-04-19 07:52:00,47.7,47.7,29.41,WNW,292,3.4,5.8,100,0.04,,-RA,0.41,VWS V14.01,2013-04-19 11:52:00,
2013-04-19 07:57:00,47.5,47.5,29.41,NW,315,2.8,5.3,100,0.04,,-RA,0.41,VWS V14.01,2013-04-19 11:57:00,
2013-04-19 08:02:00,47.7,47.7,29.41,West,270,7.3,21.2,100,0.04,,-RA,0.41,VWS V14.01,2013-04-19 12:02:00,
2013-04-19 08:07:00,47.5,47.5,29.44,West,270,6.7,9.1,100,0.04,,-RA,0.41,VWS V14.01,2013-04-19 12:07:00,
2013-04-19 08:12:00,47.1,47.1,29.44,NW,315,10.1,10.1,100,0.04,,-RA,0.41,VWS V14.01,2013-04-19 12:12:00,
2013-04-19 08:17:00,46.8,46.8,29.44,West,270,7.3,13.0,100,0.04,,-RA,0.41,VWS V14.01,2013-04-19 12:17:00,
2013-04-19 08:22:00,46.4,46.4,29.44,WNW,292,9.0,9.1,100,0.04,,-RA,0.41,VWS V14.01,2013-04-19 12:22:00,
2013-04-19 08:27:00,46.4,46.4,29.44,West,270,19.0,19.0,100,0.04,,-RA,0.41,VWS V14.01,2013-04-19 12:27:00,
2013-04-19 08:32:00,46.2,46.2,29.44,WNW,292,14.0,14.0,100,0.04,,-RA,0.41,VWS V14.01,2013-04-19 12:32:00,
2013-04-19 08:37:00,45.9,45.9,29.41,West,270,8.4,12.0,100,0.04,,-RA,0.41,VWS V14.01,2013-04-19 12:37:00,
2013-04-19 08:42:00,45.3,45.3,29.41,NW,315,5.0,9.1,100,0.04,,-RA,0.41,VWS V14.01,2013-04-19 12:42:00,
2013-04-19 08:48:00,45.0,45.0,29.41,WNW,292,5.0,9.1,100,0.00,,-RA,0.41,VWS V14.01,2013-04-19 12:48:00,
2013-04-19 08:53:00,44.6,44.6,29.41,NW,315,9.5,9.5,100,0.00,,-RA,0.41,VWS V14.01,2013-04-19 12:53:00,
2013-04-19 08:58:00,44.2,44.2,29.41,WNW,292,25.2,25.2,100,0.00,,-RA,0.41,VWS V14.01,2013-04-19 12:58:00,
2013-04-19 09:03:00,43.9,43.9,29.41,West,270,7.8,14.0,100,0.00,,-RA,0.41,VWS V14.01,2013-04-19 13:03:00,
2013-04-19 09:08:00,43.7,43.4,29.44,West,270,12.3,15.4,99,0.00,,-RA,0.41,VWS V14.01,2013-04-19 13:08:00,
2013-04-19 09:13:00,43.5,43.3,29.44,WNW,292,6.2,12.5,99,0.00,,-RA,0.41,VWS V14.01,2013-04-19 13:13:00,
2013-04-19 09:18:00,43.5,43.3,29.44,West,270,7.3,7.7,99,0.00,,-RA,0.41,VWS V14.01,2013-04-19 13:18:00,
2013-04-19 09:23:00,43.5,43.3,29.44,WNW,292,10.6,12.0,99,0.00,,-RA,0.41,VWS V14.01,2013-04-19 13:23:00,
2013-04-19 09:28:00,43.2,42.6,29.44,NW,315,9.5,16.4,98,0.00,,-RA,0.41,VWS V14.01,2013-04-19 13:28:00,
2013-04-19 09:33:00,43.2,42.6,29.44,West,270,10.1,10.6,98,0.00,,-RA,0.41,VWS V14.01,2013-04-19 13:33:00,
2013-04-19 09:38:00,43.0,42.2,29.44,West,270,15.7,15.7,97,0.00,,-RA,0.41,VWS V14.01,2013-04-19 13:38:00,
2013-04-19 09:43:00,42.8,41.7,29.44,West,270,10.6,12.5,96,0.00,,-RA,0.41,VWS V14.01,2013-04-19 13:43:00,
2013-04-19 09:48:00,42.4,41.1,29.44,West,270,9.0,13.5,95,0.00,,-RA,0.41,VWS V14.01,2013-04-19 13:48:00,
2013-04-19 09:53:00,41.9,40.0,29.47,WNW,292,6.2,12.5,93,0.00,,OVC015,0.41,VWS V14.01,2013-04-19 13:53:00,
2013-04-19 09:58:00,41.5,39.4,29.47,West,270,10.6,18.8,92,0.00,,OVC015,0.41,VWS V14.01,2013-04-19 13:58:00,
2013-04-19 10:03:00,41.4,39.2,29.47,NW,315,12.3,12.5,92,0.00,,OVC023,0.41,VWS V14.01,2013-04-19 14:03:00,
2013-04-19 10:08:00,41.0,38.6,29.47,West,270,7.3,12.5,91,0.00,,OVC023,0.41,VWS V14.01,2013-04-19 14:08:00,
2013-04-19 10:13:00,40.8,38.4,29.47,WNW,292,10.6,10.6,91,0.00,,OVC023,0.41,VWS V14.01,2013-04-19 14:13:00,
2013-04-19 10:18:00,40.6,38.2,29.47,West,270,7.3,7.3,91,0.00,,OVC023,0.41,VWS V14.01,2013-04-19 14:18:00,
2013-04-19 10:23:00,40.5,37.8,29.47,West,270,6.7,12.5,90,0.00,,OVC023,0.41,VWS V14.01,2013-04-19 14:23:00,
2013-04-19 10:28:00,40.6,37.9,29.47,South,180,3.4,6.7,90,0.00,,OVC023,0.41,VWS V14.01,2013-04-19 14:28:00,
2013-04-19 10:33:00,40.6,37.8,29.47,ENE,68,9.0,9.0,90,0.00,,OVC023,0.41,VWS V14.01,2013-04-19 14:33:00,
2013-04-19 10:38:00,40.6,37.4,29.47,WNW,292,12.3,12.3,88,0.00,,OVC023,0.41,VWS V14.01,2013-04-19 14:38:00,
2013-04-19 10:43:00,40.6,37.2,29.47,WNW,292,10.1,14.0,88,0.00,,OVC023,0.41,VWS V14.01,2013-04-19 14:43:00,
2013-04-19 10:48:00,40.6,36.9,29.47,ENE,68,15.7,15.7,86,0.00,,OVC023,0.41,VWS V14.01,2013-04-19 14:48:00,
2013-04-19 10:53:00,40.5,36.5,29.50,WNW,292,6.7,13.5,86,0.00,,OVC023,0.41,VWS V14.01,2013-04-19 14:53:00,
2013-04-19 10:58:00,40.3,36.4,29.50,West,270,12.3,12.3,86,0.00,,OVC023,0.41,VWS V14.01,2013-04-19 14:58:00,
2013-04-19 11:03:00,40.1,36.0,29.50,WNW,292,10.6,15.4,85,0.00,,OVC019,0.41,VWS V14.01,2013-04-19 15:03:00,
2013-04-19 11:08:00,39.9,35.6,29.50,South,180,9.0,9.0,84,0.00,,OVC019,0.41,VWS V14.01,2013-04-19 15:08:00,
2013-04-19 11:13:00,40.1,36.0,29.50,SSE,158,5.6,5.6,85,0.00,,OVC019,0.41,VWS V14.01,2013-04-19 15:13:00,
2013-04-19 11:18:00,40.1,36.0,29.50,West,270,8.4,8.4,85,0.00,,OVC019,0.41,VWS V14.01,2013-04-19 15:18:00,
2013-04-19 11:23:00,40.1,35.7,29.50,West,270,3.4,6.3,84,0.00,,OVC019,0.41,VWS V14.01,2013-04-19 15:23:00,
2013-04-19 11:28:00,39.9,34.6,29.50,NE,45,12.3,12.3,81,0.00,,OVC019,0.41,VWS V14.01,2013-04-19 15:28:00,
2013-04-19 11:33:00,39.7,34.2,29.50,West,270,15.1,15.1,80,0.00,,OVC019,0.41,VWS V14.01,2013-04-19 15:33:00,
2013-04-19 11:38:00,39.9,34.4,29.50,West,270,7.8,14.0,80,0.00,,OVC019,0.41,VWS V14.01,2013-04-19 15:38:00,
2013-04-19 11:43:00,39.9,34.4,29.50,WNW,292,10.1,10.1,80,0.00,,OVC019,0.41,VWS V14.01,2013-04-19 15:43:00,
2013-04-19 11:48:00,40.1,34.4,29.50,WNW,292,12.3,12.3,80,0.00,,OVC019,0.41,VWS V14.01,2013-04-19 15:48:00,
2013-04-19 11:53:00,40.1,33.6,29.53,West,270,8.4,8.4,78,0.00,,OVC019,0.41,VWS V14.01,2013-04-19 15:53:00,
2013-04-19 11:58:00,40.1,33.5,29.53,West,270,7.8,16.4,77,0.00,,OVC034,0.41,VWS V14.01,2013-04-19 15:58:00,
2013-04-19 12:03:00,39.9,32.8,29.53,West,270,16.2,21.2,76,0.00,,OVC034,0.41,VWS V14.01,2013-04-19 16:03:00,
2013-04-19 12:08:00,39.9,32.7,29.53,SSE,158,14.5,14.5,75,0.00,,OVC034,0.41,VWS V14.01,2013-04-19 16:08:00,
2013-04-19 12:13:00,39.9,32.7,29.53,South,180,12.3,14.0,75,0.00,,OVC034,0.41,VWS V14.01,2013-04-19 16:13:00,
2013-04-19 12:18:00,40.3,33.0,29.53,South,180,9.5,12.0,75,0.00,,OVC034,0.41,VWS V14.01,2013-04-19 16:18:00,
2013-04-19 12:23:00,40.3,32.8,29.53,South,180,15.7,16.4,74,0.00,,OVC034,0.41,VWS V14.01,2013-04-19 16:23:00,
2013-04-19 12:28:00,40.1,32.7,29.53,South,180,7.8,9.1,74,0.00,,OVC034,0.41,VWS V14.01,2013-04-19 16:28:00,
2013-04-19 12:33:00,40.3,32.8,29.53,West,270,11.7,21.6,74,0.00,,OVC032,0.41,VWS V14.01,2013-04-19 16:33:00,
2013-04-19 12:38:00,40.5,32.8,29.53,SSE,158,18.5,18.5,74,0.00,,OVC032,0.41,VWS V14.01,2013-04-19 16:38:00,
2013-04-19 12:43:00,40.5,32.5,29.53,WNW,292,23.5,23.5,73,0.00,,OVC032,0.41,VWS V14.01,2013-04-19 16:43:00,
2013-04-19 12:48:00,40.5,32.7,29.53,South,180,11.2,22.1,74,0.00,,OVC032,0.00,VWS V14.01,2013-04-19 16:48:00,
2013-04-19 12:53:00,40.6,32.7,29.53,South,180,7.8,15.4,73,0.00,,OVC032,0.41,VWS V14.01,2013-04-19 16:53:00,
2013-04-19 12:58:00,40.6,32.5,29.53,NW,315,7.8,12.0,72,0.00,,OVC032,0.41,VWS V14.01,2013-04-19 16:58:00,
2013-04-19 13:03:00,40.5,32.2,29.53,NW,315,9.0,14.4,72,0.00,,OVC034,0.41,VWS V14.01,2013-04-19 17:03:00,
2013-04-19 13:08:00,40.3,32.0,29.53,West,270,10.6,10.6,72,0.00,,OVC034,0.41,VWS V14.01,2013-04-19 17:08:00,
2013-04-19 13:13:00,39.9,31.6,29.53,WNW,292,21.3,21.3,72,0.00,,OVC034,0.41,VWS V14.01,2013-04-19 17:13:00,
2013-04-19 13:18:00,39.7,31.6,29.53,West,270,10.1,16.4,72,0.00,,OVC034,0.41,VWS V14.01,2013-04-19 17:18:00,
2013-04-19 13:23:00,39.6,31.6,29.53,South,180,12.3,12.3,73,0.00,,OVC036,0.41,VWS V14.01,2013-04-19 17:23:00,
2013-04-19 13:28:00,39.6,32.0,29.53,West,270,10.1,18.3,74,0.00,,OVC036,0.41,VWS V14.01,2013-04-19 17:28:00,
2013-04-19 13:33:00,39.9,32.5,29.53,South,180,13.4,13.4,74,0.00,,OVC036,0.41,VWS V14.01,2013-04-19 17:33:00,
2013-04-19 13:38:00,40.1,32.2,29.56,WNW,292,7.8,11.5,73,0.00,,OVC036,0.41,VWS V14.01,2013-04-19 17:38:00,
2013-04-19 13:43:00,40.1,32.0,29.56,West,270,14.5,17.3,72,0.00,,OVC036,0.41,VWS V14.01,2013-04-19 17:43:00,
2013-04-19 13:48:00,40.3,32.2,29.56,WNW,292,7.3,14.9,72,0.00,,OVC032,0.41,VWS V14.01,2013-04-19 17:48:00,
2013-04-19 13:53:00,40.3,32.0,29.53,SSE,158,9.0,12.0,72,0.00,,OVC032,0.41,VWS V14.01,2013-04-19 17:53:00,
2013-04-19 13:58:00,40.3,32.0,29.53,South,180,33.0,33.0,72,0.00,,OVC032,0.00,VWS V14.01,2013-04-19 17:58:00,
2013-04-19 14:03:00,40.5,32.2,29.53,West,270,6.7,12.5,72,0.00,,OVC032,0.41,VWS V14.01,2013-04-19 18:03:00,
2013-04-19 14:08:00,40.6,32.3,29.56,West,270,7.8,7.8,72,0.00,,OVC032,0.41,VWS V14.01,2013-04-19 18:08:00,
2013-04-19 14:13:00,40.8,32.3,29.56,WNW,292,14.0,14.0,72,0.00,,OVC032,0.41,VWS V14.01,2013-04-19 18:13:00,
2013-04-19 14:18:00,40.6,31.8,29.56,WNW,292,25.7,25.7,70,0.00,,OVC032,0.41,VWS V14.01,2013-04-19 18:18:00,
2013-04-19 14:23:00,40.5,31.8,29.56,South,180,15.1,15.1,71,0.00,,OVC032,0.41,VWS V14.01,2013-04-19 18:23:00,
2013-04-19 14:28:00,40.8,32.2,29.56,SSE,158,25.7,25.7,71,0.00,,OVC032,0.41,VWS V14.01,2013-04-19 18:28:00,
2013-04-19 14:33:00,40.8,31.8,29.56,West,270,15.1,26.9,70,0.00,,OVC032,0.41,VWS V14.01,2013-04-19 18:33:00,
2013-04-19 14:38:00,40.5,31.5,29.56,WNW,292,14.5,15.9,70,0.00,,OVC032,0.41,VWS V14.01,2013-04-19 18:38:00,
2013-04-19 14:43:00,40.5,31.5,29.56,West,270,7.3,15.9,70,0.00,,OVC032,0.41,VWS V14.01,2013-04-19 18:43:00,
2013-04-19 14:48:00,40.3,31.3,29.56,South,180,12.3,12.3,70,0.00,,OVC032,0.41,VWS V14.01,2013-04-19 18:48:00,
2013-04-19 14:53:00,40.3,31.5,29.56,WNW,292,21.3,21.3,70,0.00,,OVC032,0.41,VWS V14.01,2013-04-19 18:53:00,
2013-04-19 14:58:00,39.9,30.9,29.56,WNW,292,16.2,23.6,70,0.00,,OVC032,0.41,VWS V14.01,2013-04-19 18:58:00,
2013-04-19 15:03:00,39.7,31.0,29.56,South,180,10.6,15.4,70,0.00,,OVC034,0.41,VWS V14.01,2013-04-19 19:03:00,
2013-04-19 15:08:00,39.7,31.0,29.56,West,270,14.5,14.5,70,0.00,,OVC034,0.41,VWS V14.01,2013-04-19 19:08:00,
2013-04-19 15:13:00,39.7,31.0,29.56,West,270,21.8,21.8,70,0.00,,OVC034,0.41,VWS V14.01,2013-04-19 19:13:00,
2013-04-19 15:18:00,39.9,31.1,29.56,West,270,15.1,15.1,70,0.00,,OVC034,0.41,VWS V14.01,2013-04-19 19:18:00,
2013-04-19 15:23:00,39.9,31.1,29.53,WNW,292,21.3,21.3,70,0.00,,OVC034,0.41,VWS V14.01,2013-04-19 19:23:00,
2013-04-19 15:28:00,40.1,31.3,29.53,West,270,21.8,21.8,70,0.00,,OVC034,0.41,VWS V14.01,2013-04-19 19:28:00,
2013-04-19 15:33:00,40.1,31.3,29.53,NW,315,9.5,13.5,70,0.00,,OVC034,0.41,VWS V14.01,2013-04-19 19:33:00,
2013-04-19 15:38:00,39.9,31.1,29.59,WNW,292,16.2,16.2,70,0.00,,OVC034,0.41,VWS V14.01,2013-04-19 19:38:00,
2013-04-19 15:44:00,39.9,31.1,29.59,West,270,9.5,15.9,70,0.00,,OVC034,0.41,VWS V14.01,2013-04-19 19:44:00,
2013-04-19 15:49:00,40.1,31.3,29.59,South,180,9.0,17.3,70,0.00,,OVC034,0.41,VWS V14.01,2013-04-19 19:49:00,
2013-04-19 15:54:00,40.3,31.3,29.59,NW,315,17.9,17.9,70,0.00,,OVC034,0.41,VWS V14.01,2013-04-19 19:54:00,
2013-04-19 15:59:00,39.9,30.9,29.59,West,270,27.4,27.4,70,0.00,,OVC034,0.41,VWS V14.01,2013-04-19 19:59:00,
2013-04-19 16:04:00,40.5,31.6,29.59,WNW,292,7.8,11.5,70,0.00,,OVC044,0.41,VWS V14.01,2013-04-19 20:04:00,
2013-04-19 16:09:00,40.8,31.8,29.59,South,180,21.8,21.8,70,0.00,,OVC044,0.41,VWS V14.01,2013-04-19 20:09:00,
2013-04-19 16:14:00,40.6,31.8,29.59,WNW,292,10.6,10.6,70,0.00,,OVC044,0.41,VWS V14.01,2013-04-19 20:14:00,
2013-04-19 16:19:00,40.5,31.5,29.59,WNW,292,10.6,10.6,70,0.00,,OVC044,0.41,VWS V14.01,2013-04-19 20:19:00,
2013-04-19 16:24:00,40.1,31.3,29.59,South,180,9.5,11.5,70,0.00,,OVC044,0.41,VWS V14.01,2013-04-19 20:24:00,
2013-04-19 16:29:00,39.9,30.9,29.59,West,270,13.4,13.4,70,0.00,,OVC044,0.41,VWS V14.01,2013-04-19 20:29:00,
2013-04-19 16:34:00,39.9,31.1,29.59,SSE,158,12.3,17.3,70,0.00,,OVC044,0.41,VWS V14.01,2013-04-19 20:34:00,
2013-04-19 16:39:00,39.7,30.8,29.59,WNW,292,16.2,18.8,70,0.00,,OVC044,0.41,VWS V14.01,2013-04-19 20:39:00,
2013-04-19 16:44:00,39.7,31.0,29.59,NW,315,5.0,8.2,70,0.00,,OVC044,0.41,VWS V14.01,2013-04-19 20:44:00,
2013-04-19 16:49:00,39.7,30.8,29.59,WNW,292,13.4,13.4,70,0.00,,OVC044,0.41,VWS V14.01,2013-04-19 20:49:00,
2013-04-19 16:54:00,39.7,31.0,29.62,West,270,14.0,14.0,70,0.00,,OVC044,0.41,VWS V14.01,2013-04-19 20:54:00,
2013-04-19 16:59:00,39.9,30.9,29.62,West,270,8.4,11.5,70,0.00,,OVC044,0.41,VWS V14.01,2013-04-19 20:59:00,
2013-04-19 17:04:00,39.7,30.8,29.62,NW,315,10.1,23.1,70,0.00,,OVC038,0.41,VWS V14.01,2013-04-19 21:04:00,
2013-04-19 17:09:00,39.7,30.8,29.62,WNW,292,32.4,32.4,70,0.00,,OVC038,0.41,VWS V14.01,2013-04-19 21:09:00,
2013-04-19 17:14:00,39.6,30.6,29.62,South,180,24.6,24.6,70,0.00,,OVC038,0.41,VWS V14.01,2013-04-19 21:14:00,
2013-04-19 17:19:00,39.4,30.6,29.62,SSE,158,15.1,18.3,70,0.00,,OVC038,0.41,VWS V14.01,2013-04-19 21:19:00,
2013-04-19 17:24:00,39.4,30.4,29.59,WNW,292,7.3,7.3,70,0.00,,OVC038,0.41,VWS V14.01,2013-04-19 21:24:00,
2013-04-19 17:29:00,39.4,30.6,29.59,West,270,18.5,19.2,70,0.00,,OVC038,0.41,VWS V14.01,2013-04-19 21:29:00,
2013-04-19 17:34:00,39.6,30.6,29.59,West,270,23.5,23.5,70,0.00,,OVC038,0.41,VWS V14.01,2013-04-19 21:34:00,
2013-04-19 17:39:00,39.7,31.0,29.62,West,270,12.3,12.3,70,0.00,,OVC038,0.41,VWS V14.01,2013-04-19 21:39:00,
2013-04-19 17:44:00,39.7,31.0,29.62,West,270,9.5,16.4,70,0.00,,OVC038,0.41,VWS V14.01,2013-04-19 21:44:00,
2013-04-19 17:49:00,39.6,30.6,29.62,West,270,8.4,8.4,70,0.00,,OVC038,0.41,VWS V14.01,2013-04-19 21:49:00,
2013-04-19 17:54:00,39.4,30.4,29.65,South,180,10.6,21.2,70,0.00,,OVC038,0.41,VWS V14.01,2013-04-19 21:54:00,
2013-04-19 17:59:00,39.6,30.6,29.65,West,270,16.2,18.3,70,0.00,,OVC038,0.41,VWS V14.01,2013-04-19 21:59:00,
2013-04-19 18:04:00,39.6,30.6,29.65,NW,315,8.4,8.4,70,0.00,,OVC060,0.41,VWS V14.01,2013-04-19 22:04:00,
2013-04-19 18:09:00,39.7,30.8,29.65,West,270,12.3,12.3,70,0.00,,OVC060,0.41,VWS V14.01,2013-04-19 22:09:00,
2013-04-19 18:14:00,39.4,30.4,29.65,West,270,36.9,36.9,70,0.00,,OVC060,0.41,VWS V14.01,2013-04-19 22:14:00,
2013-04-19 18:19:00,39.2,30.4,29.65,NW,315,29.6,29.6,70,0.00,,OVC060,0.41,VWS V14.01,2013-04-19 22:19:00,
2013-04-19 18:24:00,39.2,30.4,29.65,South,180,6.7,6.7,70,0.00,,OVC060,0.41,VWS V14.01,2013-04-19 22:24:00,
2013-04-19 18:29:00,39.2,30.6,29.65,NW,315,6.7,6.7,71,0.00,,OVC060,0.41,VWS V14.01,2013-04-19 22:29:00,
2013-04-19 18:34:00,39.2,30.4,29.65,WNW,292,20.1,20.1,70,0.00,,OVC060,0.41,VWS V14.01,2013-04-19 22:34:00,
2013-04-19 18:39:00,39.2,30.4,29.65,West,270,15.1,21.2,70,0.00,,OVC060,0.41,VWS V14.01,2013-04-19 22:39:00,
2013-04-19 18:44:00,39.2,30.4,29.65,WNW,292,18.5,18.5,70,0.00,,OVC060,0.41,VWS V14.01,2013-04-19 22:44:00,
2013-04-19 18:49:00,39.0,30.2,29.65,West,270,17.9,17.9,70,0.00,,OVC060,0.41,VWS V14.01,2013-04-19 22:49:00,
2013-04-19 18:54:00,38.8,30.1,29.68,South,180,21.8,21.8,70,0.00,,OVC049,0.41,VWS V14.01,2013-04-19 22:54:00,
2013-04-19 18:59:00,38.8,30.3,29.68,South,180,15.7,15.7,71,0.00,,OVC047,0.41,VWS V14.01,2013-04-19 22:59:00,
2013-04-19 19:04:00,38.8,30.1,29.68,South,180,20.1,21.2,70,0.00,,OVC047,0.41,VWS V14.01,2013-04-19 23:04:00,
2013-04-19 19:09:00,38.8,30.1,29.68,West,270,25.7,25.7,70,0.00,,OVC047,0.41,VWS V14.01,2013-04-19 23:09:00,
2013-04-19 19:14:00,38.8,30.1,29.68,West,270,10.6,21.6,70,0.00,,OVC047,0.41,VWS V14.01,2013-04-19 23:14:00,
2013-04-19 19:19:00,38.8,30.1,29.68,NW,315,16.2,16.2,70,0.00,,OVC047,0.41,VWS V14.01,2013-04-19 23:19:00,
2013-04-19 19:24:00,38.7,29.9,29.68,South,180,9.0,11.5,70,0.00,,OVC047,0.41,VWS V14.01,2013-04-19 23:24:00,
2013-04-19 19:29:00,38.7,29.9,29.68,West,270,7.8,7.8,70,0.00,,OVC047,0.41,VWS V14.01,2013-04-19 23:29:00,
2013-04-19 19:34:00,38.5,29.9,29.68,SSE,158,18.5,18.5,71,0.00,,OVC060,0.41,VWS V14.01,2013-04-19 23:34:00,
2013-04-19 19:39:00,38.5,29.7,29.68,South,180,25.2,25.2,70,0.00,,OVC060,0.41,VWS V14.01,2013-04-19 23:39:00,
2013-04-19 19:44:00,38.5,29.7,29.68,West,270,12.3,12.3,70,0.00,,OVC060,0.41,VWS V14.01,2013-04-19 23:44:00,
2013-04-19 19:49:00,38.3,29.9,29.68,West,270,9.0,11.5,72,0.00,,OVC060,0.41,VWS V14.01,2013-04-19 23:49:00,
2013-04-19 19:54:00,38.1,29.7,29.68,West,270,6.2,6.2,72,0.00,,OVC060,0.41,VWS V14.01,2013-04-19 23:54:00,
2013-04-19 19:59:00,38.1,29.7,29.68,WNW,292,9.0,9.0,72,0.00,,OVC060,0.41,VWS V14.01,2013-04-19 23:59:00,
2013-04-19 20:04:00,37.9,29.6,29.68,West,270,6.2,12.5,72,0.00,,OVC060,0.41,VWS V14.01,2013-04-20 00:04:00,
2013-04-19 20:09:00,37.9,29.6,29.71,West,270,8.4,8.4,72,0.00,,OVC060,0.41,VWS V14.01,2013-04-20 00:09:00,
2013-04-19 20:14:00,37.9,29.6,29.71,South,180,6.7,9.1,72,0.00,,OVC060,0.41,VWS V14.01,2013-04-20 00:14:00,
2013-04-19 20:19:00,37.9,29.6,29.71,West,270,20.1,24.1,72,0.00,,OVC060,0.41,VWS V14.01,2013-04-20 00:19:00,
2013-04-19 20:24:00,37.9,29.6,29.71,West,270,6.7,13.5,72,0.00,,OVC060,0.41,VWS V14.01,2013-04-20 00:24:00,
2013-04-19 20:29:00,37.9,29.6,29.71,West,270,7.8,13.5,72,0.00,,OVC060,0.41,VWS V14.01,2013-04-20 00:29:00,
2013-04-19 20:34:00,37.9,29.6,29.71,West,270,10.1,15.9,72,0.00,,OVC060,0.41,VWS V14.01,2013-04-20 00:34:00,
2013-04-19 20:39:00,37.9,29.6,29.71,South,180,9.0,9.0,72,0.00,,OVC060,0.41,VWS V14.01,2013-04-20 00:39:00,
2013-04-19 20:44:00,37.8,29.4,29.71,West,270,11.2,11.2,72,0.00,,OVC060,0.41,VWS V14.01,2013-04-20 00:44:00,
2013-04-19 20:49:00,37.8,29.4,29.71,West,270,15.1,18.3,72,0.00,,OVC060,0.41,VWS V14.01,2013-04-20 00:49:00,
2013-04-19 20:54:00,37.6,29.2,29.71,West,270,17.3,17.3,72,0.00,,OVC060,0.41,VWS V14.01,2013-04-20 00:54:00,
2013-04-19 20:59:00,37.6,29.2,29.71,West,270,14.5,25.5,72,0.00,,OVC070,0.41,VWS V14.01,2013-04-20 00:59:00,
2013-04-19 21:04:00,37.4,29.0,29.71,WNW,292,19.0,19.0,72,0.00,,OVC070,0.41,VWS V14.01,2013-04-20 01:04:00,
2013-04-19 21:09:00,37.4,29.2,29.71,West,270,10.6,10.6,72,0.00,,OVC070,0.41,VWS V14.01,2013-04-20 01:09:00,
2013-04-19 21:14:00,37.6,29.4,29.71,West,270,7.8,9.6,72,0.00,,OVC070,0.41,VWS V14.01,2013-04-20 01:14:00,
2013-04-19 21:19:00,37.4,29.2,29.71,WNW,292,8.4,14.0,72,0.00,,OVC070,0.41,VWS V14.01,2013-04-20 01:19:00,
2013-04-19 21:24:00,37.4,29.4,29.74,West,270,18.5,21.6,72,0.00,,OVC070,0.41,VWS V14.01,2013-04-20 01:24:00,
2013-04-19 21:30:00,37.4,29.4,29.74,West,270,9.5,14.0,72,0.00,,OVC070,0.41,VWS V14.01,2013-04-20 01:30:00,
2013-04-19 21:35:00,37.4,29.5,29.74,West,270,15.1,15.4,73,0.00,,OVC070,0.41,VWS V14.01,2013-04-20 01:35:00,
2013-04-19 21:40:00,37.2,29.4,29.74,West,270,12.3,12.3,73,0.00,,OVC070,0.41,VWS V14.01,2013-04-20 01:40:00,
2013-04-19 21:45:00,37.2,29.5,29.74,WNW,292,12.3,12.3,74,0.00,,OVC070,0.41,VWS V14.01,2013-04-20 01:45:00,
2013-04-19 21:50:00,37.0,29.4,29.74,WNW,292,23.5,23.5,74,0.00,,OVC070,0.41,VWS V14.01,2013-04-20 01:50:00,
2013-04-19 21:55:00,37.0,29.4,29.74,WNW,292,9.5,23.6,74,0.00,,OVC070,0.41,VWS V14.01,2013-04-20 01:55:00,
2013-04-19 22:00:00,37.0,29.5,29.74,WNW,292,8.4,11.5,74,0.00,,OVC070,0.41,VWS V14.01,2013-04-20 02:00:00,
2013-04-19 22:05:00,36.9,29.4,29.74,NW,315,7.8,8.7,74,0.00,,OVC070,0.41,VWS V14.01,2013-04-20 02:05:00,
2013-04-19 22:10:00,36.9,29.5,29.74,NE,45,9.0,19.2,74,0.00,,OVC070,0.41,VWS V14.01,2013-04-20 02:10:00,
2013-04-19 22:15:00,36.9,29.4,29.74,South,180,6.2,8.7,74,0.00,,OVC070,0.41,VWS V14.01,2013-04-20 02:15:00,
2013-04-19 22:20:00,36.9,29.5,29.74,West,270,19.0,19.0,74,0.00,,OVC070,0.41,VWS V14.01,2013-04-20 02:20:00,
2013-04-19 22:25:00,36.9,29.5,29.74,SSE,158,19.6,19.6,74,0.00,,OVC070,0.41,VWS V14.01,2013-04-20 02:25:00,
2013-04-19 22:30:00,36.9,29.5,29.74,West,270,8.4,12.0,74,0.00,,OVC070,0.41,VWS V14.01,2013-04-20 02:30:00,
2013-04-19 22:35:00,36.9,29.5,29.74,WNW,292,14.5,14.5,74,0.00,,OVC070,0.41,VWS V14.01,2013-04-20 02:35:00,
2013-04-19 22:40:00,36.9,29.7,29.74,WNW,292,18.5,18.5,75,0.00,,OVC070,0.41,VWS V14.01,2013-04-20 02:40:00,
2013-04-19 22:45:00,36.7,29.5,29.74,East,90,15.1,26.5,75,0.00,,OVC070,0.41,VWS V14.01,2013-04-20 02:45:00,
2013-04-19 22:50:00,36.7,29.5,29.74,WNW,292,9.5,13.5,75,0.00,,OVC070,0.41,VWS V14.01,2013-04-20 02:50:00,
2013-04-19 22:55:00,36.7,29.5,29.74,West,270,13.4,13.4,75,0.00,,OVC070,0.41,VWS V14.01,2013-04-20 02:55:00,
2013-04-19 23:00:00,36.7,29.5,29.74,WNW,292,13.4,13.4,75,0.00,,,0.41,VWS V14.01,2013-04-20 03:00:00,
2013-04-19 23:05:00,36.7,29.5,29.74,West,270,18.5,18.5,75,0.00,,,0.41,VWS V14.01,2013-04-20 03:05:00,
2013-04-19 23:10:00,36.7,29.5,29.76,West,270,15.7,15.7,75,0.00,,,0.41,VWS V14.01,2013-04-20 03:10:00,
2013-04-19 23:15:00,36.7,29.5,29.76,West,270,2.8,7.7,75,0.00,,,0.41,VWS V14.01,2013-04-20 03:15:00,
2013-04-19 23:20:00,36.3,29.3,29.76,NE,45,3.9,10.6,76,0.00,,,0.41,VWS V14.01,2013-04-20 03:20:00,
2013-04-19 23:25:00,35.1,28.8,29.74,WNW,292,8.4,8.4,78,0.00,,,0.41,VWS V14.01,2013-04-20 03:25:00,
2013-04-19 23:30:00,34.0,28.5,29.74,NW,315,13.4,13.4,80,0.00,,,0.41,VWS V14.01,2013-04-20 03:30:00,
2013-04-19 23:35:00,33.6,28.3,29.74,West,270,7.3,7.3,80,0.00,,,0.41,VWS V14.01,2013-04-20 03:35:00,
2013-04-19 23:40:00,33.1,28.3,29.74,WNW,292,9.0,9.1,82,0.00,,,0.41,VWS V14.01,2013-04-20 03:40:00,
2013-04-19 23:45:00,33.1,28.3,29.74,South,180,7.3,7.3,82,0.00,,,0.41,VWS V14.01,2013-04-20 03:45:00,
2013-04-19 23:50:00,32.9,28.3,29.74,WNW,292,8.4,8.7,83,0.00,,,0.41,VWS V14.01,2013-04-20 03:50:00,
2013-04-19 23:55:00,33.1,28.9,29.74,West,270,9.5,9.5,84,0.00,,,0.41,VWS V14.01,2013-04-20 03:55:00,